Time;durP1;ratioP1;P1;durP2;ratioP2;P2;SDS_P1;SDS_P2;PMS_P1;PMS_P2;Temp;Humidity;BMP_temperature;BMP_pressure;BME280_temperature;BME280_humidity;BME280_pressure;Samples;Min_cycle;Max_cycle;Signal;HPM_P1;HPM_P2
2021/04/06 00:01:42;;;;;;;;;;;15.40;41.20;;;;;;5034385;28;75924;-68
2021/04/06 00:04:09;;;;;;;;;;;15.30;41.20;;;;;;5033908;28;77321;-67
2021/04/06 00:06:36;;;;;;;;;;;15.20;41.40;;;;;;5033883;28;75056;-68
2021/04/06 00:09:06;;;;;;;;;;;15.20;42.30;;;;;;5032335;28;75482;-69
2021/04/06 00:11:32;;;;;;;;;;;15.10;42.90;;;;;;5032001;28;80178;-68
2021/04/06 00:13:58;;;;;;;;;;;15.00;42.10;;;;;;5032369;28;77744;-65
2021/04/06 00:16:24;;;;;;;;;;;15.00;42.10;;;;;;5031906;28;77725;-65
2021/04/06 00:18:50;;;;;;;;;;;15.00;42.60;;;;;;5032439;28;77856;-66
2021/04/06 00:21:16;;;;;;;;;;;14.90;42.90;;;;;;5032554;28;77544;-69
2021/04/06 00:23:43;;;;;;;;;;;14.70;43.00;;;;;;5031841;28;75920;-66
2021/04/06 00:26:08;;;;;;;;;;;14.60;42.80;;;;;;5032235;28;75175;-70
2021/04/06 00:28:35;;;;;;;;;;;14.60;43.40;;;;;;5031760;28;75123;-74
2021/04/06 00:31:02;;;;;;;;;;;14.60;43.10;;;;;;5033972;28;74479;-72
2021/04/06 00:33:29;;;;;;;;;;;14.50;42.90;;;;;;5031427;28;77475;-66
2021/04/06 00:35:56;;;;;;;;;;;14.50;43.20;;;;;;5034034;28;74491;-72
2021/04/06 00:38:22;;;;;;;;;;;14.50;43.20;;;;;;5031766;28;75544;-67
2021/04/06 00:40:50;;;;;;;;;;;14.40;43.10;;;;;;5033251;28;75291;-66
2021/04/06 00:43:17;;;;;;;;;;;14.30;43.50;;;;;;5033512;28;75242;-66
2021/04/06 00:45:43;;;;;;;;;;;14.20;43.60;;;;;;5033355;28;75230;-70
2021/04/06 00:48:10;;;;;;;;;;;14.10;43.40;;;;;;5033750;28;74966;-68
2021/04/06 00:50:36;;;;;;;;;;;14.10;43.40;;;;;;5033224;28;75403;-69
2021/04/06 00:53:02;;;;;;;;;;;14.00;43.90;;;;;;5033483;28;74548;-73
2021/04/06 00:55:33;;;;;;;;;;;13.90;44.30;;;;;;5032071;28;75174;-70
2021/04/06 00:57:58;;;;;;;;;;;13.90;44.20;;;;;;5032810;28;75159;-71
2021/04/06 01:00:26;;;;;;;;;;;13.90;44.10;;;;;;5034201;28;74372;-66
2021/04/06 01:02:58;;;;;;;;;;;13.80;44.10;;;;;;5032680;28;75207;-70
2021/04/06 01:05:24;;;;;;;;;;;13.80;44.40;;;;;;5031941;28;74533;-65
2021/04/06 01:07:51;;;;;;;;;;;13.80;44.30;;;;;;5031698;28;74912;-73
2021/04/06 01:10:17;;;;;;;;;;;13.70;44.90;;;;;;5031769;28;74667;-79
2021/04/06 01:12:44;;;;;;;;;;;13.70;44.90;;;;;;5033071;28;75213;-79
2021/04/06 01:15:10;;;;;;;;;;;13.60;45.10;;;;;;5031397;28;75432;-73
2021/04/06 01:17:37;;;;;;;;;;;13.50;44.50;;;;;;5031588;28;76388;-75
2021/04/06 01:20:08;;;;;;;;;;;13.40;45.00;;;;;;5030579;28;77126;-71
2021/04/06 01:22:34;;;;;;;;;;;13.40;45.20;;;;;;5033266;28;74565;-75
2021/04/06 01:24:59;;;;;;;;;;;13.40;44.80;;;;;;5032963;28;75111;-73
2021/04/06 01:27:25;;;;;;;;;;;13.30;45.40;;;;;;5033200;28;74646;-65
2021/04/06 01:29:55;;;;;;;;;;;13.20;45.00;;;;;;5031092;28;75487;-72
2021/04/06 01:32:28;;;;;;;;;;;13.20;45.50;;;;;;5030886;28;77596;-68
2021/04/06 01:34:54;;;;;;;;;;;13.10;45.50;;;;;;5031299;28;75689;-65
2021/04/06 01:37:21;;;;;;;;;;;13.00;45.60;;;;;;5032681;28;75138;-72
2021/04/06 01:39:49;;;;;;;;;;;13.00;46.90;;;;;;5030778;28;77294;-66
2021/04/06 01:42:15;;;;;;;;;;;12.90;46.30;;;;;;5031121;28;77290;-66
2021/04/06 01:44:43;;;;;;;;;;;12.80;46.50;;;;;;5033107;28;75208;-68
2021/04/06 01:47:13;;;;;;;;;;;12.70;46.40;;;;;;5033121;28;75042;-71
2021/04/06 01:49:39;;;;;;;;;;;12.70;47.30;;;;;;5033213;28;74704;-70
2021/04/06 01:52:04;;;;;;;;;;;12.70;46.60;;;;;;5033190;28;74444;-71
2021/04/06 01:54:30;;;;;;;;;;;12.60;46.90;;;;;;5032379;28;75135;-68
2021/04/06 01:57:00;;;;;;;;;;;12.60;47.40;;;;;;5032459;28;75184;-71
2021/04/06 01:59:34;;;;;;;;;;;12.60;46.80;;;;;;5030862;28;75273;-68
2021/04/06 02:02:01;;;;;;;;;;;12.60;46.90;;;;;;5030815;28;78235;-68
2021/04/06 02:04:28;;;;;;;;;;;12.60;47.00;;;;;;5030431;28;77840;-71
2021/04/06 02:06:54;;;;;;;;;;;12.60;47.10;;;;;;5030890;28;78116;-70
2021/04/06 02:09:20;;;;;;;;;;;12.60;47.10;;;;;;5032354;28;74641;-72
2021/04/06 02:11:47;;;;;;;;;;;12.60;47.00;;;;;;5030382;28;76995;-68
2021/04/06 02:14:13;;;;;;;;;;;12.60;46.80;;;;;;5032584;28;74582;-70
2021/04/06 02:16:53;;;;;;;;;;;12.50;47.00;;;;;;5031032;28;78028;-67
2021/04/06 02:19:19;;;;;;;;;;;12.40;47.00;;;;;;5030166;28;77626;-69
2021/04/06 02:21:48;;;;;;;;;;;12.40;47.40;;;;;;5032303;28;75226;-72
2021/04/06 02:24:24;;;;;;;;;;;12.40;47.30;;;;;;5030258;28;76736;-72
2021/04/06 02:26:56;;;;;;;;;;;12.40;47.40;;;;;;5032701;28;75202;-67
2021/04/06 02:29:21;;;;;;;;;;;12.40;47.50;;;;;;5031991;28;75581;-69
2021/04/06 02:31:47;;;;;;;;;;;12.40;47.30;;;;;;5030242;28;77620;-73
2021/04/06 02:34:13;;;;;;;;;;;12.40;47.20;;;;;;5032529;28;74465;-73
2021/04/06 02:36:39;;;;;;;;;;;12.40;47.10;;;;;;5030232;28;77419;-79
2021/04/06 02:39:04;;;;;;;;;;;12.40;47.20;;;;;;5032620;28;74431;-80
2021/04/06 02:41:30;;;;;;;;;;;12.30;46.90;;;;;;5032059;28;74520;-73
2021/04/06 02:43:56;;;;;;;;;;;12.30;47.20;;;;;;5031990;28;75301;-76
2021/04/06 02:46:22;;;;;;;;;;;12.40;47.20;;;;;;5032478;28;74443;-77
2021/04/06 02:48:49;;;;;;;;;;;12.40;47.10;;;;;;5030528;28;74574;-74
2021/04/06 02:51:15;;;;;;;;;;;12.40;47.70;;;;;;5031793;28;75160;-72
2021/04/06 02:53:41;;;;;;;;;;;12.30;47.60;;;;;;5029980;28;76605;-72
2021/04/06 02:56:07;;;;;;;;;;;12.20;47.60;;;;;;5031976;28;75100;-77
2021/04/06 02:58:37;;;;;;;;;;;12.10;48.10;;;;;;5029733;28;77532;-69
2021/04/06 03:01:09;;;;;;;;;;;12.10;48.00;;;;;;5031761;28;75043;-65
2021/04/06 03:03:36;;;;;;;;;;;12.10;48.00;;;;;;5029743;28;78098;-66
2021/04/06 03:06:03;;;;;;;;;;;12.00;47.80;;;;;;5031541;28;74988;-72
2021/04/06 03:08:32;;;;;;;;;;;12.10;47.90;;;;;;5031649;28;75252;-75
2021/04/06 03:10:57;;;;;;;;;;;12.10;48.00;;;;;;5030842;28;77408;-77
2021/04/06 03:13:24;;;;;;;;;;;12.10;48.10;;;;;;5032447;28;75193;-79
2021/04/06 03:15:50;;;;;;;;;;;12.00;48.10;;;;;;5031650;28;75189;-75
2021/04/06 03:18:16;;;;;;;;;;;12.00;48.30;;;;;;5033245;28;75508;-75
2021/04/06 03:20:42;;;;;;;;;;;11.90;48.50;;;;;;5035037;28;75080;-70
2021/04/06 03:23:08;;;;;;;;;;;11.80;48.70;;;;;;5034914;28;75189;-68
2021/04/06 03:25:37;;;;;;;;;;;11.70;49.30;;;;;;5034952;28;75125;-71
2021/04/06 03:28:07;;;;;;;;;;;11.60;49.30;;;;;;5033100;28;75496;-72
2021/04/06 03:30:36;;;;;;;;;;;11.50;50.10;;;;;;5033186;28;75441;-69
2021/04/06 03:33:02;;;;;;;;;;;11.40;50.10;;;;;;5032574;28;77701;-71
2021/04/06 03:35:28;;;;;;;;;;;11.40;50.00;;;;;;5033137;28;76123;-71
2021/04/06 03:37:54;;;;;;;;;;;11.30;50.50;;;;;;5032928;28;74817;-69
2021/04/06 03:40:20;;;;;;;;;;;11.20;50.50;;;;;;5032420;28;76526;-70
2021/04/06 03:42:46;;;;;;;;;;;11.20;50.30;;;;;;5032422;28;76608;-72
2021/04/06 03:45:12;;;;;;;;;;;11.10;50.60;;;;;;5034597;28;75742;-70
2021/04/06 03:47:53;;;;;;;;;;;11.00;51.20;;;;;;5034630;28;75122;-68
2021/04/06 03:50:31;;;;;;;;;;;10.90;50.90;;;;;;5034526;28;74974;-68
2021/04/06 03:53:00;;;;;;;;;;;10.90;50.90;;;;;;5034675;28;75227;-67
2021/04/06 03:55:25;;;;;;;;;;;10.90;50.70;;;;;;5034209;28;75071;-66
2021/04/06 03:57:54;;;;;;;;;;;10.90;50.60;;;;;;5034473;28;74756;-72
2021/04/06 04:00:20;;;;;;;;;;;10.90;50.50;;;;;;5034391;28;75725;-65
2021/04/06 04:02:45;;;;;;;;;;;10.90;50.20;;;;;;5032514;28;75422;-66
2021/04/06 04:05:11;;;;;;;;;;;10.90;50.30;;;;;;5034109;28;75260;-66
2021/04/06 04:07:37;;;;;;;;;;;11.00;50.20;;;;;;5033849;28;75264;-66
2021/04/06 04:10:07;;;;;;;;;;;10.90;50.50;;;;;;5033898;28;74475;-65
2021/04/06 04:12:32;;;;;;;;;;;10.90;50.30;;;;;;5033504;28;75748;-66
2021/04/06 04:14:58;;;;;;;;;;;10.90;50.20;;;;;;5034166;28;75206;-67
2021/04/06 04:17:24;;;;;;;;;;;10.90;50.30;;;;;;5034022;28;74353;-66
2021/04/06 04:19:50;;;;;;;;;;;11.00;50.20;;;;;;5031625;28;77484;-65
2021/04/06 04:22:15;;;;;;;;;;;10.90;50.40;;;;;;5033860;28;75135;-66
2021/04/06 04:24:41;;;;;;;;;;;10.90;50.70;;;;;;5033809;28;74581;-67
2021/04/06 04:27:07;;;;;;;;;;;10.90;50.50;;;;;;5033843;28;75261;-68
2021/04/06 04:29:32;;;;;;;;;;;10.90;50.50;;;;;;5033209;28;74545;-65
2021/04/06 04:31:58;;;;;;;;;;;10.90;50.70;;;;;;5034109;28;74977;-66
2021/04/06 04:34:24;;;;;;;;;;;10.90;50.70;;;;;;5033379;28;75015;-67
2021/04/06 04:36:49;;;;;;;;;;;11.00;50.70;;;;;;5033600;28;75220;-66
2021/04/06 04:39:18;;;;;;;;;;;11.00;50.50;;;;;;5033699;28;75131;-71
2021/04/06 04:41:43;;;;;;;;;;;11.00;50.60;;;;;;5032283;28;77511;-68
2021/04/06 04:44:09;;;;;;;;;;;11.00;50.70;;;;;;5033387;28;75157;-64
2021/04/06 04:46:35;;;;;;;;;;;11.00;50.70;;;;;;5032482;28;74601;-68
2021/04/06 04:49:00;;;;;;;;;;;11.00;50.70;;;;;;5033635;28;75094;-67
2021/04/06 04:51:26;;;;;;;;;;;11.10;50.60;;;;;;5033909;28;74619;-68
2021/04/06 04:53:52;;;;;;;;;;;11.10;50.90;;;;;;5031608;28;76855;-66
2021/04/06 04:56:17;;;;;;;;;;;11.00;50.90;;;;;;5034060;28;75219;-68
2021/04/06 04:58:43;;;;;;;;;;;11.00;51.00;;;;;;5035026;28;74598;-67
2021/04/06 05:01:10;;;;;;;;;;;11.00;51.30;;;;;;5031358;28;76335;-70
2021/04/06 05:03:36;;;;;;;;;;;11.00;51.30;;;;;;5032845;28;75312;-69
2021/04/06 05:06:01;;;;;;;;;;;11.00;51.60;;;;;;5032775;28;76364;-66
2021/04/06 05:08:27;;;;;;;;;;;11.00;52.10;;;;;;5033384;28;75050;-67
2021/04/06 05:10:52;;;;;;;;;;;10.90;52.20;;;;;;5031556;28;75415;-67
2021/04/06 05:13:18;;;;;;;;;;;10.80;52.00;;;;;;5033168;28;75280;-70
2021/04/06 05:15:43;;;;;;;;;;;10.80;51.80;;;;;;5031809;28;78535;-70
2021/04/06 05:18:09;;;;;;;;;;;10.70;51.80;;;;;;5033337;28;75123;-69
2021/04/06 05:20:35;;;;;;;;;;;10.60;51.80;;;;;;5031359;28;77074;-73
2021/04/06 05:23:00;;;;;;;;;;;10.60;51.80;;;;;;5033145;28;75108;-67
2021/04/06 05:25:26;;;;;;;;;;;10.60;51.90;;;;;;5033179;28;74995;-75
2021/04/06 05:27:52;;;;;;;;;;;10.60;51.70;;;;;;5033206;28;74809;-66
2021/04/06 05:30:17;;;;;;;;;;;10.70;51.60;;;;;;5033263;28;75835;-72
2021/04/06 05:32:43;;;;;;;;;;;10.60;51.90;;;;;;5032930;28;75125;-65
2021/04/06 05:35:09;;;;;;;;;;;10.70;52.00;;;;;;5041355;27;75249;-66
2021/04/06 05:37:35;;;;;;;;;;;10.60;52.20;;;;;;5046244;28;76997;-64
2021/04/06 05:40:00;;;;;;;;;;;10.50;52.10;;;;;;5035413;27;77272;-69
2021/04/06 05:42:26;;;;;;;;;;;10.60;52.30;;;;;;5040197;27;75238;-70
2021/04/06 05:44:52;;;;;;;;;;;10.60;52.20;;;;;;5041102;27;76654;-66
2021/04/06 05:47:24;;;;;;;;;;;10.60;52.40;;;;;;5039873;28;76622;-70
2021/04/06 05:49:49;;;;;;;;;;;10.50;52.20;;;;;;5040306;28;75885;-68
2021/04/06 05:52:15;;;;;;;;;;;10.60;52.20;;;;;;5040858;28;75728;-66
2021/04/06 05:54:41;;;;;;;;;;;10.50;52.40;;;;;;5040128;27;76528;-68
2021/04/06 05:57:06;;;;;;;;;;;10.50;52.40;;;;;;5039721;28;75810;-64
2021/04/06 05:59:32;;;;;;;;;;;10.50;52.70;;;;;;5039639;28;75229;-67
2021/04/06 06:01:58;;;;;;;;;;;10.50;52.60;;;;;;5038317;28;76713;-66
2021/04/06 06:04:24;;;;;;;;;;;10.40;52.70;;;;;;5036879;27;76209;-66
2021/04/06 06:06:49;;;;;;;;;;;10.40;52.90;;;;;;5036807;28;75717;-66
2021/04/06 06:09:27;;;;;;;;;;;10.30;53.30;;;;;;5036876;28;75698;-66
2021/04/06 06:11:56;;;;;;;;;;;10.30;53.00;;;;;;5037559;28;76201;-64
2021/04/06 06:14:27;;;;;;;;;;;10.20;53.00;;;;;;5038173;28;75831;-73
2021/04/06 06:16:53;;;;;;;;;;;10.30;53.00;;;;;;5039069;28;76035;-70
2021/04/06 06:19:18;;;;;;;;;;;10.20;53.10;;;;;;5037360;28;76466;-70
2021/04/06 06:21:53;;;;;;;;;;;10.20;53.10;;;;;;5037836;28;76015;-70
2021/04/06 06:24:22;;;;;;;;;;;10.30;53.20;;;;;;5038221;28;75166;-69
2021/04/06 06:26:48;;;;;;;;;;;10.20;53.00;;;;;;5038836;28;75717;-72
2021/04/06 06:29:16;;;;;;;;;;;10.20;53.20;;;;;;5037338;28;76401;-71
2021/04/06 06:31:45;;;;;;;;;;;10.20;53.30;;;;;;5037929;28;78269;-72
2021/04/06 06:34:28;;;;;;;;;;;10.30;53.20;;;;;;5036976;28;77175;-70
2021/04/06 06:37:08;;;;;;;;;;;10.30;53.70;;;;;;5037584;27;76465;-69
2021/04/06 06:39:35;;;;;;;;;;;10.30;53.60;;;;;;5037235;28;75724;-71
2021/04/06 06:42:03;;;;;;;;;;;10.30;53.90;;;;;;5037738;28;76354;-69
2021/04/06 06:44:30;;;;;;;;;;;10.30;53.50;;;;;;5038630;28;76356;-69
2021/04/06 06:47:09;;;;;;;;;;;10.30;53.40;;;;;;5038667;28;75791;-74
2021/04/06 06:49:41;;;;;;;;;;;10.40;53.30;;;;;;5036158;28;77996;-75
2021/04/06 06:52:19;;;;;;;;;;;10.40;53.20;;;;;;5036825;27;76120;-77
2021/04/06 06:54:45;;;;;;;;;;;10.50;52.90;;;;;;5041807;28;75994;-75
2021/04/06 06:57:12;;;;;;;;;;;10.70;52.80;;;;;;5040585;28;78367;-76
2021/04/06 06:59:39;;;;;;;;;;;10.70;52.40;;;;;;5040391;28;77748;-76
2021/04/06 07:02:23;;;;;;;;;;;10.70;52.90;;;;;;5040672;28;76376;-76
2021/04/06 07:04:49;;;;;;;;;;;10.70;52.50;;;;;;5039238;28;77279;-76
2021/04/06 07:07:15;;;;;;;;;;;10.70;52.40;;;;;;5039389;28;76396;-76
2021/04/06 07:09:41;;;;;;;;;;;10.70;52.20;;;;;;5038125;28;76102;-75
2021/04/06 07:12:07;;;;;;;;;;;10.70;52.00;;;;;;5042230;28;75789;-74
2021/04/06 07:14:33;;;;;;;;;;;10.80;51.90;;;;;;5039619;28;79049;-74
2021/04/06 07:17:01;;;;;;;;;;;10.90;51.60;;;;;;5041617;27;76417;-71
2021/04/06 07:19:27;;;;;;;;;;;11.00;51.70;;;;;;5040398;28;76527;-72
2021/04/06 07:21:53;;;;;;;;;;;11.00;51.60;;;;;;5041903;28;75718;-70
2021/04/06 07:24:20;;;;;;;;;;;11.10;51.30;;;;;;5045023;28;76006;-75
2021/04/06 07:26:46;;;;;;;;;;;11.20;51.50;;;;;;5042135;28;76270;-75
2021/04/06 07:29:11;;;;;;;;;;;11.40;51.20;;;;;;5039384;28;78059;-73
2021/04/06 07:31:37;;;;;;;;;;;11.50;51.00;;;;;;5040069;28;76248;-72
2021/04/06 07:34:10;;;;;;;;;;;11.60;50.80;;;;;;5039647;28;78766;-73
2021/04/06 07:36:36;;;;;;;;;;;11.70;50.40;;;;;;5041257;27;76330;-74
2021/04/06 07:39:09;;;;;;;;;;;11.90;50.00;;;;;;5044624;28;76854;-76
2021/04/06 07:41:38;;;;;;;;;;;11.90;49.70;;;;;;5041549;28;75890;-74
2021/04/06 07:44:04;;;;;;;;;;;11.90;49.50;;;;;;5041781;27;75738;-75
2021/04/06 07:46:36;;;;;;;;;;;12.10;49.30;;;;;;5040522;28;76391;-74
2021/04/06 07:49:08;;;;;;;;;;;12.20;49.10;;;;;;5040746;28;75816;-73
2021/04/06 07:51:39;;;;;;;;;;;12.40;49.00;;;;;;5039405;28;76285;-72
2021/04/06 07:54:08;;;;;;;;;;;12.50;48.70;;;;;;5038338;28;76674;-73
2021/04/06 07:56:43;;;;;;;;;;;12.60;48.50;;;;;;5040312;28;75762;-72
2021/04/06 07:59:18;;;;;;;;;;;12.80;48.30;;;;;;5040708;27;76177;-74
2021/04/06 08:01:43;;;;;;;;;;;12.90;48.20;;;;;;5040612;28;76227;-73
2021/04/06 08:04:09;;;;;;;;;;;13.00;47.60;;;;;;5039126;27;79549;-72
2021/04/06 08:06:43;;;;;;;;;;;13.20;47.40;;;;;;5040598;28;77048;-73
2021/04/06 08:09:27;;;;;;;;;;;13.30;46.70;;;;;;5037754;28;78338;-73
2021/04/06 08:12:05;;;;;;;;;;;13.40;46.40;;;;;;5039736;28;76312;-75
2021/04/06 08:14:31;;;;;;;;;;;13.60;45.90;;;;;;5037928;28;76631;-74
2021/04/06 08:17:15;;;;;;;;;;;13.70;45.20;;;;;;5040862;27;75707;-74
2021/04/06 08:19:48;;;;;;;;;;;13.90;45.10;;;;;;5040921;28;75948;-73
2021/04/06 08:22:22;;;;;;;;;;;13.90;45.00;;;;;;5040728;28;76728;-73
2021/04/06 08:24:48;;;;;;;;;;;14.10;45.10;;;;;;5039999;27;76594;-74
2021/04/06 08:27:36;;;;;;;;;;;14.30;44.70;;;;;;5040276;28;75753;-72
2021/04/06 08:30:26;;;;;;;;;;;14.40;44.60;;;;;;5038722;28;76744;-72
2021/04/06 08:32:58;;;;;;;;;;;14.50;44.00;;;;;;5040772;27;76636;-70
2021/04/06 08:35:39;;;;;;;;;;;14.60;43.80;;;;;;5039080;27;76483;-70
2021/04/06 08:38:25;;;;;;;;;;;14.70;43.90;;;;;;5038191;28;75868;-71
2021/04/06 08:40:53;;;;;;;;;;;14.90;43.30;;;;;;5038277;28;78094;-71
2021/04/06 08:43:23;;;;;;;;;;;15.00;42.80;;;;;;5040015;28;76543;-70
2021/04/06 08:45:56;;;;;;;;;;;15.00;42.70;;;;;;5038268;28;76360;-70
2021/04/06 08:48:40;;;;;;;;;;;15.20;42.80;;;;;;5038374;28;75461;-71
2021/04/06 08:51:35;;;;;;;;;;;15.30;42.50;;;;;;5040213;28;76491;-70
2021/04/06 08:54:02;;;;;;;;;;;15.40;41.90;;;;;;5025655;28;76681;-70
2021/04/06 08:56:33;;;;;;;;;;;15.60;42.00;;;;;;5040088;28;76347;-70
2021/04/06 08:59:11;;;;;;;;;;;15.70;41.30;;;;;;5038221;27;77091;-70
2021/04/06 09:01:37;;;;;;;;;;;15.80;43.10;;;;;;5039484;28;75617;-70
2021/04/06 09:04:13;;;;;;;;;;;15.90;43.20;;;;;;5037713;28;77073;-70
2021/04/06 09:06:39;;;;;;;;;;;16.00;43.30;;;;;;5039184;27;76005;-70
2021/04/06 09:09:10;;;;;;;;;;;16.10;42.80;;;;;;5039582;28;76623;-71
2021/04/06 09:11:37;;;;;;;;;;;16.20;42.80;;;;;;5039996;27;75648;-71
2021/04/06 09:14:04;;;;;;;;;;;16.30;42.60;;;;;;5037760;28;95679;-70
2021/04/06 09:16:31;;;;;;;;;;;16.40;40.50;;;;;;5035855;28;76385;-70
2021/04/06 09:18:58;;;;;;;;;;;16.50;41.20;;;;;;5039264;27;75843;-67
2021/04/06 09:21:25;;;;;;;;;;;16.70;38.90;;;;;;5038523;27;76286;-67
2021/04/06 09:23:55;;;;;;;;;;;16.90;38.60;;;;;;5036838;28;76072;-68
2021/04/06 09:26:21;;;;;;;;;;;17.00;39.00;;;;;;5036846;28;76378;-67
2021/04/06 09:28:46;;;;;;;;;;;17.20;38.10;;;;;;5038975;28;76514;-69
2021/04/06 09:31:12;;;;;;;;;;;17.40;38.40;;;;;;5038929;28;76739;-68
2021/04/06 09:33:38;;;;;;;;;;;17.60;38.30;;;;;;5036947;28;76227;-69
2021/04/06 09:36:04;;;;;;;;;;;17.90;36.80;;;;;;5037989;28;76357;-69
2021/04/06 09:38:30;;;;;;;;;;;18.00;37.30;;;;;;5038353;28;75462;-68
2021/04/06 09:40:56;;;;;;;;;;;18.20;36.20;;;;;;5039403;27;76521;-68
2021/04/06 09:43:22;;;;;;;;;;;18.40;35.60;;;;;;5038556;27;75776;-69
2021/04/06 09:45:48;;;;;;;;;;;18.50;35.60;;;;;;5036333;28;78360;-68
2021/04/06 09:48:15;;;;;;;;;;;18.70;35.80;;;;;;5039005;27;76792;-69
2021/04/06 09:50:54;;;;;;;;;;;19.00;36.10;;;;;;5037607;27;76273;-70
2021/04/06 09:53:19;;;;;;;;;;;19.20;35.40;;;;;;5035038;28;76655;-72
2021/04/06 09:55:47;;;;;;;;;;;19.50;34.50;;;;;;5038552;27;76347;-70
2021/04/06 09:58:14;;;;;;;;;;;19.70;33.10;;;;;;5038464;28;76559;-71
2021/04/06 10:00:39;;;;;;;;;;;19.80;33.90;;;;;;5038671;28;76385;-70
2021/04/06 10:03:08;;;;;;;;;;;20.00;32.10;;;;;;5038968;28;76474;-71
2021/04/06 10:05:34;;;;;;;;;;;20.20;33.90;;;;;;5037251;28;76559;-71
2021/04/06 10:08:00;;;;;;;;;;;20.40;33.70;;;;;;5038124;27;75879;-69
2021/04/06 10:10:27;;;;;;;;;;;20.70;33.00;;;;;;5037994;28;76291;-70
2021/04/06 10:12:53;;;;;;;;;;;20.90;32.40;;;;;;5037698;27;76157;-70
2021/04/06 10:15:23;;;;;;;;;;;21.10;32.30;;;;;;5037972;27;76326;-70
2021/04/06 10:17:50;;;;;;;;;;;21.40;32.00;;;;;;5036831;28;78988;-70
2021/04/06 10:20:17;;;;;;;;;;;21.60;30.40;;;;;;5037777;28;76449;-70
2021/04/06 10:22:42;;;;;;;;;;;21.80;29.10;;;;;;5037531;27;76590;-70
2021/04/06 10:25:09;;;;;;;;;;;21.90;29.30;;;;;;5038036;28;75823;-70
2021/04/06 10:27:37;;;;;;;;;;;22.10;30.40;;;;;;5038932;27;78207;-70
2021/04/06 10:30:06;;;;;;;;;;;22.30;29.80;;;;;;5042051;28;75786;-70
2021/04/06 10:32:35;;;;;;;;;;;22.60;30.20;;;;;;5040466;28;79565;-71
2021/04/06 10:35:04;;;;;;;;;;;22.90;29.00;;;;;;5040125;28;77346;-70
2021/04/06 10:37:42;;;;;;;;;;;23.20;29.20;;;;;;5040439;28;77084;-71
2021/04/06 10:40:24;;;;;;;;;;;23.50;28.00;;;;;;5040697;28;75998;-70
2021/04/06 10:42:51;;;;;;;;;;;23.80;27.40;;;;;;5041680;27;77153;-71
2021/04/06 10:45:17;;;;;;;;;;;24.10;25.30;;;;;;5039945;28;76247;-71
2021/04/06 10:47:43;;;;;;;;;;;24.20;26.10;;;;;;5041495;28;76254;-70
2021/04/06 10:50:08;;;;;;;;;;;24.40;26.60;;;;;;5041976;28;76569;-71
2021/04/06 10:52:34;;;;;;;;;;;24.80;26.50;;;;;;5040436;27;76067;-71
2021/04/06 10:55:01;;;;;;;;;;;25.10;25.90;;;;;;5038663;28;76553;-69
2021/04/06 10:57:27;;;;;;;;;;;25.40;24.80;;;;;;5041630;28;75695;-72
2021/04/06 10:59:53;;;;;;;;;;;25.80;25.40;;;;;;5040413;28;76370;-71
2021/04/06 11:02:20;;;;;;;;;;;26.40;24.80;;;;;;5042160;28;76262;-71
2021/04/06 11:04:45;;;;;;;;;;;26.90;24.50;;;;;;5039228;28;75024;-70
2021/04/06 11:07:11;;;;;;;;;;;27.50;23.60;;;;;;5039321;28;76527;-70
2021/04/06 11:09:44;;;;;;;;;;;28.00;23.20;;;;;;5039751;28;77025;-71
2021/04/06 11:12:11;;;;;;;;;;;28.60;20.70;;;;;;5039305;28;76147;-71
2021/04/06 11:14:37;;;;;;;;;;;28.90;22.50;;;;;;5039575;28;76441;-70
2021/04/06 11:17:07;;;;;;;;;;;29.60;21.90;;;;;;5040819;28;75821;-70
2021/04/06 11:19:37;;;;;;;;;;;30.40;20.60;;;;;;5041588;27;75458;-71
2021/04/06 11:22:04;;;;;;;;;;;31.20;20.10;;;;;;5039616;28;78406;-71
2021/04/06 11:24:30;;;;;;;;;;;32.00;19.80;;;;;;5040823;27;76185;-70
2021/04/06 11:26:59;;;;;;;;;;;33.20;19.30;;;;;;5041312;28;75856;-70
2021/04/06 11:29:28;;;;;;;;;;;34.00;17.80;;;;;;5039454;28;76239;-71
2021/04/06 11:31:56;;;;;;;;;;;34.80;18.20;;;;;;5039721;28;75856;-71
2021/04/06 11:34:21;;;;;;;;;;;35.80;17.20;;;;;;5039648;28;75754;-71
2021/04/06 11:36:48;;;;;;;;;;;36.70;16.90;;;;;;5041238;27;77208;-70
2021/04/06 11:39:15;;;;;;;;;;;37.60;16.30;;;;;;5041350;27;76440;-71
2021/04/06 11:41:44;;;;;;;;;;;38.40;16.20;;;;;;5041894;27;75501;-72
2021/04/06 11:44:09;;;;;;;;;;;39.20;15.50;;;;;;5040943;27;75215;-72
2021/04/06 11:46:36;;;;;;;;;;;39.60;15.20;;;;;;5040639;28;76643;-71
2021/04/06 11:49:03;;;;;;;;;;;40.10;13.80;;;;;;5039401;28;76794;-72
2021/04/06 11:51:28;;;;;;;;;;;39.80;14.30;;;;;;5041389;28;76414;-71
2021/04/06 11:53:54;;;;;;;;;;;40.30;14.10;;;;;;5039632;27;76338;-70
2021/04/06 11:56:20;;;;;;;;;;;41.10;11.80;;;;;;5039005;28;78084;-70
2021/04/06 11:58:45;;;;;;;;;;;40.20;13.40;;;;;;5038472;28;77590;-70
2021/04/06 12:01:11;;;;;;;;;;;40.70;13.40;;;;;;5039270;28;78011;-71
2021/04/06 12:03:37;;;;;;;;;;;41.50;12.70;;;;;;5037863;28;77174;-71
2021/04/06 12:06:03;;;;;;;;;;;42.40;12.60;;;;;;5040944;28;75853;-72
2021/04/06 12:08:28;;;;;;;;;;;43.00;13.00;;;;;;5040475;28;76165;-71
2021/04/06 12:10:54;;;;;;;;;;;44.00;12.50;;;;;;5038948;28;76015;-70
2021/04/06 12:13:20;;;;;;;;;;;44.30;10.80;;;;;;5038791;28;78510;-71
2021/04/06 12:15:46;;;;;;;;;;;43.60;11.00;;;;;;5038519;28;77843;-72
2021/04/06 12:18:12;;;;;;;;;;;41.90;11.60;;;;;;5039990;28;75691;-72
2021/04/06 12:20:37;;;;;;;;;;;39.10;13.70;;;;;;5038970;28;76266;-71
2021/04/06 12:23:03;;;;;;;;;;;37.30;13.50;;;;;;5039390;28;79496;-70
2021/04/06 12:25:29;;;;;;;;;;;34.60;15.40;;;;;;5040164;27;75687;-73
2021/04/06 12:27:54;;;;;;;;;;;32.80;16.10;;;;;;5040000;27;75752;-71
2021/04/06 12:30:20;;;;;;;;;;;31.40;17.20;;;;;;5038837;28;78740;-73
2021/04/06 12:32:46;;;;;;;;;;;30.60;17.60;;;;;;5038340;27;76058;-69
2021/04/06 12:35:12;;;;;;;;;;;30.10;18.40;;;;;;5038220;28;76078;-71
2021/04/06 12:37:37;;;;;;;;;;;29.80;18.60;;;;;;5039091;27;75153;-70
2021/04/06 12:40:04;;;;;;;;;;;30.20;17.40;;;;;;5039850;28;75912;-70
2021/04/06 12:42:30;;;;;;;;;;;30.40;16.40;;;;;;5039739;27;77197;-70
2021/04/06 12:44:55;;;;;;;;;;;30.90;17.10;;;;;;5037907;28;78134;-72
2021/04/06 12:47:21;;;;;;;;;;;34.00;16.10;;;;;;5040021;28;76128;-73
2021/04/06 12:49:48;;;;;;;;;;;37.70;14.50;;;;;;5039161;27;75963;-73
2021/04/06 12:52:13;;;;;;;;;;;40.50;12.80;;;;;;5039953;28;75940;-71
2021/04/06 12:54:39;;;;;;;;;;;42.40;11.90;;;;;;5039587;28;76588;-70
2021/04/06 12:57:04;;;;;;;;;;;43.40;11.10;;;;;;5038257;28;78182;-73
2021/04/06 12:59:31;;;;;;;;;;;43.90;11.40;;;;;;5041076;28;76792;-73
2021/04/06 13:01:56;;;;;;;;;;;44.70;10.80;;;;;;5038149;27;76328;-70
2021/04/06 13:04:22;;;;;;;;;;;43.60;11.80;;;;;;5039114;28;76178;-72
2021/04/06 13:06:47;;;;;;;;;;;41.90;10.90;;;;;;5037849;27;77856;-71
2021/04/06 13:09:13;;;;;;;;;;;39.50;12.30;;;;;;5039693;28;76672;-71
2021/04/06 13:11:39;;;;;;;;;;;36.40;13.20;;;;;;5037801;28;78162;-71
2021/04/06 13:14:04;;;;;;;;;;;34.10;13.90;;;;;;5037201;28;76218;-71
2021/04/06 13:16:33;;;;;;;;;;;32.60;16.00;;;;;;5037446;28;78395;-71
2021/04/06 13:18:59;;;;;;;;;;;31.90;16.60;;;;;;5037175;27;77444;-72
2021/04/06 13:21:25;;;;;;;;;;;31.20;16.30;;;;;;5039205;27;77362;-72
2021/04/06 13:23:51;;;;;;;;;;;30.70;17.10;;;;;;5038891;27;75743;-72
2021/04/06 13:26:17;;;;;;;;;;;30.20;16.80;;;;;;5037749;27;76308;-71
2021/04/06 13:28:42;;;;;;;;;;;29.20;16.80;;;;;;5043610;27;76460;-70
2021/04/06 13:31:08;;;;;;;;;;;28.40;17.30;;;;;;5051343;28;77965;-72
2021/04/06 13:33:33;;;;;;;;;;;28.00;18.20;;;;;;5052718;28;77511;-74
2021/04/06 13:35:59;;;;;;;;;;;28.30;18.00;;;;;;5053224;28;75262;-72
2021/04/06 13:38:25;;;;;;;;;;;28.80;17.50;;;;;;5051347;28;76406;-74
2021/04/06 13:40:50;;;;;;;;;;;29.50;17.50;;;;;;5051172;28;78079;-73
2021/04/06 13:43:16;;;;;;;;;;;29.90;17.20;;;;;;5052767;28;75757;-70
2021/04/06 13:45:42;;;;;;;;;;;30.00;16.70;;;;;;5052707;28;74970;-73
2021/04/06 13:48:07;;;;;;;;;;;30.40;16.60;;;;;;5051200;28;77257;-73
2021/04/06 13:50:34;;;;;;;;;;;31.90;15.20;;;;;;5051469;28;77282;-72
2021/04/06 13:53:00;;;;;;;;;;;32.40;15.70;;;;;;5052314;28;75711;-71
2021/04/06 13:55:26;;;;;;;;;;;32.60;15.60;;;;;;5051549;28;78084;-71
2021/04/06 13:57:52;;;;;;;;;;;32.40;15.60;;;;;;5050795;28;75941;-71
2021/04/06 14:00:19;;;;;;;;;;;31.60;16.10;;;;;;5051254;28;77227;-71
2021/04/06 14:02:45;;;;;;;;;;;31.20;17.10;;;;;;5050598;28;78119;-71
2021/04/06 14:05:12;;;;;;;;;;;32.30;15.50;;;;;;5050399;28;75286;-71
2021/04/06 14:07:38;;;;;;;;;;;33.90;14.70;;;;;;5051035;28;74708;-72
2021/04/06 14:10:08;;;;;;;;;;;34.20;15.10;;;;;;5050734;28;78057;-72
2021/04/06 14:12:34;;;;;;;;;;;34.30;14.30;;;;;;5052475;28;75412;-72
2021/04/06 14:14:59;;;;;;;;;;;33.80;14.60;;;;;;5052274;28;74487;-71
2021/04/06 14:17:25;;;;;;;;;;;33.30;15.20;;;;;;5052096;28;75039;-71
2021/04/06 14:19:51;;;;;;;;;;;32.80;15.80;;;;;;5052855;28;74679;-72